Time;durP1;ratioP1;P1;durP2;ratioP2;P2;SDS_P1;SDS_P2;PMS_P1;PMS_P2;Temp;Humidity;BMP_temperature;BMP_pressure;BME280_temperature;BME280_humidity;BME280_pressure;Samples;Min_cycle;Max_cycle;Signal;HPM_P1;HPM_P2
2023/03/09 00:02:17;;;;;;;1.00;0.40;;;;;;;-2.74;67.04;99626.09;4971754;28;20062;-73
2023/03/09 00:04:44;;;;;;;1.40;0.38;;;;;;;-2.77;67.00;99633.72;4972188;28;20053;-73
2023/03/09 00:07:11;;;;;;;2.60;0.60;;;;;;;-2.79;66.83;99632.81;4971789;28;20541;-73
2023/03/09 00:09:38;;;;;;;2.17;0.35;;;;;;;-2.83;67.04;99641.28;4971059;28;20426;-73
2023/03/09 00:12:05;;;;;;;2.28;0.40;;;;;;;-2.85;67.07;99637.81;4972079;28;20058;-72
2023/03/09 00:14:33;;;;;;;1.35;0.70;;;;;;;-2.88;66.78;99635.22;4971157;28;20050;-73
2023/03/09 00:17:00;;;;;;;3.00;0.40;;;;;;;-2.91;67.01;99637.72;4971218;28;20511;-74
2023/03/09 00:19:27;;;;;;;1.88;0.50;;;;;;;-2.93;67.20;99642.81;4970876;28;20051;-73
2023/03/09 00:21:55;;;;;;;0.90;0.32;;;;;;;-2.96;67.00;99641.06;4971153;28;20055;-73
2023/03/09 00:24:26;;;;;;;2.75;0.40;;;;;;;-3.03;66.77;99636.69;4971670;28;20491;-73
2023/03/09 00:26:55;;;;;;;2.50;0.50;;;;;;;-3.05;67.13;99630.66;4970033;28;20050;-73
2023/03/09 00:29:25;;;;;;;2.05;0.40;;;;;;;-3.05;67.06;99634.94;4971579;28;20051;-73
2023/03/09 00:31:54;;;;;;;5.07;0.50;;;;;;;-3.09;66.67;99630.59;4970264;28;20054;-73
2023/03/09 00:34:22;;;;;;;0.60;0.40;;;;;;;-3.10;66.88;99632.31;4969257;28;20053;-73
2023/03/09 00:36:49;;;;;;;0.70;0.30;;;;;;;-3.12;66.89;99633.97;4972005;28;20050;-73
2023/03/09 00:39:17;;;;;;;1.42;0.40;;;;;;;-3.14;66.83;99634.75;4970625;28;20061;-73
2023/03/09 00:41:45;;;;;;;1.13;0.40;;;;;;;-3.17;67.19;99638.13;4972017;28;20053;-73
2023/03/09 00:44:13;;;;;;;3.83;0.52;;;;;;;-3.20;67.13;99643.19;4970472;28;20047;-73
2023/03/09 00:46:40;;;;;;;1.63;0.50;;;;;;;-3.25;67.10;99642.22;4970288;28;20502;-73
2023/03/09 00:49:12;;;;;;;1.27;0.50;;;;;;;-3.26;67.27;99631.16;4971240;28;20055;-73
2023/03/09 00:51:39;;;;;;;2.95;0.30;;;;;;;-3.32;67.20;99631.03;4970253;28;20058;-73
2023/03/09 00:54:06;;;;;;;1.00;0.32;;;;;;;-3.31;66.94;99637.84;4969160;28;20058;-73
2023/03/09 00:56:33;;;;;;;1.95;0.40;;;;;;;-3.33;67.07;99647.22;4969425;28;20051;-73
2023/03/09 00:59:01;;;;;;;1.15;0.40;;;;;;;-3.36;66.80;99653.91;4970678;28;20042;-73
2023/03/09 01:01:28;;;;;;;2.25;0.47;;;;;;;-3.38;66.78;99658.16;4970506;28;20046;-73
2023/03/09 01:03:55;;;;;;;1.33;0.73;;;;;;;-3.41;66.70;99658.97;4971872;28;20050;-73
2023/03/09 01:06:24;;;;;;;2.28;0.40;;;;;;;-3.46;66.76;99658.00;4970561;28;20054;-73
2023/03/09 01:08:51;;;;;;;3.17;0.50;;;;;;;-3.48;66.79;99660.50;4970220;28;20049;-73
2023/03/09 01:11:18;;;;;;;1.38;0.40;;;;;;;-3.51;66.88;99664.69;4971077;28;20053;-73
2023/03/09 01:13:45;;;;;;;1.65;0.43;;;;;;;-3.54;66.70;99672.28;4969973;28;20050;-73
2023/03/09 01:16:12;;;;;;;2.17;0.60;;;;;;;-3.57;66.47;99670.53;4968842;28;20058;-72
2023/03/09 01:18:39;;;;;;;0.98;0.35;;;;;;;-3.61;66.54;99678.97;4966779;28;20057;-73
2023/03/09 01:21:07;;;;;;;3.92;0.63;;;;;;;-3.64;66.79;99672.13;4970424;28;20416;-73
2023/03/09 01:23:36;;;;;;;1.85;0.40;;;;;;;-3.67;66.73;99676.25;4965301;28;20051;-72
2023/03/09 01:26:03;;;;;;;2.33;0.45;;;;;;;-3.69;66.93;99691.56;4969682;28;20042;-73
2023/03/09 01:28:30;;;;;;;3.50;0.43;;;;;;;-3.73;66.63;99681.25;4960512;28;20043;-73
2023/03/09 01:30:57;;;;;;;1.92;0.52;;;;;;;-3.75;66.61;99691.44;4968072;28;20530;-73
2023/03/09 01:33:24;;;;;;;4.82;0.45;;;;;;;-3.78;66.54;99686.28;4964602;28;20051;-73
2023/03/09 01:35:51;;;;;;;4.38;0.47;;;;;;;-3.79;66.73;99686.22;4966146;28;20057;-73
2023/03/09 01:38:18;;;;;;;2.85;0.45;;;;;;;-3.83;66.38;99681.91;4966222;28;20051;-73
2023/03/09 01:40:48;;;;;;;2.33;0.50;;;;;;;-3.88;66.93;99680.09;4970150;28;20039;-73
2023/03/09 01:43:31;;;;;;;3.53;0.50;;;;;;;-3.89;66.59;99687.72;4966911;28;20058;-72
2023/03/09 01:46:29;;;;;;;1.92;0.50;;;;;;;-3.92;66.75;99682.56;4970613;28;20078;-73
2023/03/09 01:49:00;;;;;;;1.20;0.40;;;;;;;-3.96;66.25;99675.66;4968424;28;20514;-73
2023/03/09 01:51:31;;;;;;;2.85;0.60;;;;;;;-3.99;66.51;99676.44;4969758;28;20431;-73
2023/03/09 01:54:00;;;;;;;1.13;0.45;;;;;;;-4.01;67.05;99683.22;4967813;28;20105;-72
2023/03/09 01:56:30;;;;;;;2.75;0.30;;;;;;;-4.03;66.83;99679.75;4967867;28;20050;-73
2023/03/09 01:59:00;;;;;;;1.88;0.50;;;;;;;-4.08;66.86;99681.34;4969730;28;20105;-73
2023/03/09 02:01:27;;;;;;;2.70;0.50;;;;;;;-4.09;66.80;99687.28;4970249;28;20061;-73
2023/03/09 02:04:01;;;;;;;1.50;0.32;;;;;;;-4.13;66.69;99682.91;4970707;28;20050;-73
2023/03/09 02:06:28;;;;;;;6.22;1.40;;;;;;;-4.14;66.66;99689.72;4968314;28;20474;-73
2023/03/09 02:09:00;;;;;;;1.75;0.45;;;;;;;-4.14;66.52;99691.41;4966864;28;20068;-72
2023/03/09 02:11:29;;;;;;;2.50;0.43;;;;;;;-4.17;66.72;99691.34;4968956;28;20523;-73
2023/03/09 02:13:56;;;;;;;1.77;0.43;;;;;;;-4.18;66.65;99694.72;4967613;28;20385;-73
2023/03/09 02:16:23;;;;;;;2.05;0.50;;;;;;;-4.21;66.79;99698.06;4969242;28;20051;-72
2023/03/09 02:18:49;;;;;;;0.75;0.35;;;;;;;-4.22;66.61;99692.91;4962746;28;20053;-73
2023/03/09 02:21:28;;;;;;;2.55;0.43;;;;;;;-4.25;66.39;99701.34;4969333;28;20519;-73
2023/03/09 02:24:03;;;;;;;2.15;0.35;;;;;;;-4.28;66.53;99698.72;4967421;28;20050;-73
2023/03/09 02:26:34;;;;;;;;;;;;;;;-4.32;67.11;99697.78;4967310;28;20039;-73
2023/03/09 02:29:02;;;;;;;2.08;0.40;;;;;;;-4.35;66.41;99700.28;4967901;28;19932;-73
2023/03/09 02:31:29;;;;;;;1.55;0.40;;;;;;;-4.38;66.50;99696.81;4969311;28;20470;-72
2023/03/09 02:33:56;;;;;;;1.30;0.43;;;;;;;-4.42;66.82;99703.50;4968494;28;20057;-73
2023/03/09 02:36:24;;;;;;;1.60;0.60;;;;;;;-4.47;67.09;99702.50;4968703;28;20039;-73
2023/03/09 02:38:51;;;;;;;1.73;0.47;;;;;;;-4.46;66.56;99709.34;4968948;28;20114;-73
2023/03/09 02:41:18;;;;;;;2.30;0.40;;;;;;;-4.50;66.45;99709.22;4968972;28;20047;-73
2023/03/09 02:43:48;;;;;;;3.15;0.40;;;;;;;-4.53;66.85;99721.06;4970745;28;20050;-73
2023/03/09 02:46:17;;;;;;;2.97;0.30;;;;;;;-4.55;66.16;99725.28;4969468;28;20141;-72
2023/03/09 02:48:44;;;;;;;2.47;0.50;;;;;;;-4.57;66.32;99729.47;4967943;28;20419;-72
2023/03/09 02:51:11;;;;;;;6.95;0.60;;;;;;;-4.59;66.17;99727.69;4968730;28;20049;-73
2023/03/09 02:53:38;;;;;;;4.45;0.60;;;;;;;-4.61;66.25;99726.78;4969645;28;20058;-73
2023/03/09 02:56:05;;;;;;;2.30;0.45;;;;;;;-4.63;66.22;99731.00;4965813;28;20659;-73
2023/03/09 02:58:32;;;;;;;2.95;0.40;;;;;;;-4.64;66.36;99737.78;4968149;28;20061;-72
2023/03/09 03:00:59;;;;;;;1.83;0.60;;;;;;;-4.72;66.55;99725.66;4969964;28;20045;-73
2023/03/09 03:03:27;;;;;;;6.78;0.47;;;;;;;-4.69;66.67;99741.91;4969644;28;20051;-73
2023/03/09 03:05:54;;;;;;;2.08;0.50;;;;;;;-4.71;66.19;99745.22;4968763;28;20623;-73
2023/03/09 03:08:21;;;;;;;1.08;0.47;;;;;;;-4.76;66.38;99748.50;4969088;28;20054;-73
2023/03/09 03:10:48;;;;;;;2.08;0.50;;;;;;;-4.78;66.63;99752.72;4968187;28;20073;-71
2023/03/09 03:13:15;;;;;;;1.00;0.35;;;;;;;-4.81;66.20;99750.09;4968708;28;20054;-71
2023/03/09 03:15:42;;;;;;;3.15;0.50;;;;;;;-4.84;66.30;99752.56;4969661;28;20509;-72
2023/03/09 03:18:09;;;;;;;1.15;0.57;;;;;;;-4.86;66.18;99751.63;4972346;28;20054;-72
2023/03/09 03:20:38;;;;;;;1.27;0.55;;;;;;;-4.88;66.70;99760.91;4973105;28;20043;-72
2023/03/09 03:23:05;;;;;;;1.27;0.63;;;;;;;-4.90;66.00;99769.31;4970398;28;20061;-71
2023/03/09 03:25:32;;;;;;;5.05;0.60;;;;;;;-4.92;66.76;99776.06;4972604;28;20078;-71
2023/03/09 03:27:59;;;;;;;2.72;0.57;;;;;;;-4.95;66.12;99787.06;4969496;28;20112;-72
2023/03/09 03:30:26;;;;;;;2.10;0.50;;;;;;;-4.97;66.24;99788.69;4970322;28;20058;-72
2023/03/09 03:32:53;;;;;;;1.55;0.50;;;;;;;-5.00;66.58;99786.06;4969457;28;20051;-72
2023/03/09 03:35:20;;;;;;;1.50;0.50;;;;;;;-5.02;66.53;99787.69;4970934;28;20114;-71
2023/03/09 03:37:49;;;;;;;1.70;0.50;;;;;;;-5.05;66.10;99785.91;4972779;28;20054;-70
2023/03/09 03:40:16;;;;;;;3.03;0.60;;;;;;;-5.06;66.68;99788.44;4971395;28;20423;-71
2023/03/09 03:42:43;;;;;;;1.33;0.50;;;;;;;-5.12;66.71;99790.78;4972020;28;20050;-70
2023/03/09 03:45:10;;;;;;;5.35;0.80;;;;;;;-5.12;66.16;99795.88;4973619;28;20731;-72
2023/03/09 03:47:37;;;;;;;2.33;0.50;;;;;;;-5.14;66.10;99792.44;4972268;28;20450;-71
2023/03/09 03:50:05;;;;;;;2.95;0.60;;;;;;;-5.15;66.59;99793.25;4971197;28;20038;-72
2023/03/09 03:52:32;;;;;;;3.58;0.50;;;;;;;-5.18;66.66;99791.47;4971615;28;20392;-72
2023/03/09 03:55:00;;;;;;;4.72;0.80;;;;;;;-5.20;66.39;99798.22;4971730;28;20039;-71
2023/03/09 03:57:27;;;;;;;2.80;0.60;;;;;;;-5.23;65.97;99804.09;4972726;28;20129;-71
2023/03/09 03:59:54;;;;;;;1.67;0.60;;;;;;;-5.26;66.00;99795.50;4971293;28;20065;-72
2023/03/09 04:02:21;;;;;;;3.45;0.70;;;;;;;-5.29;65.97;99803.91;4972393;28;20054;-72
2023/03/09 04:04:48;;;;;;;4.28;0.73;;;;;;;-5.31;66.58;99800.44;4971395;28;20059;-72
2023/03/09 04:07:14;;;;;;;1.52;0.55;;;;;;;-5.33;65.93;99796.97;4972398;28;20047;-72
2023/03/09 04:09:41;;;;;;;1.67;0.47;;;;;;;-5.36;65.89;99786.72;4970327;28;20049;-72
2023/03/09 04:12:10;;;;;;;2.70;0.50;;;;;;;-5.37;65.84;99800.28;4971872;28;20047;-73
2023/03/09 04:14:38;;;;;;;4.28;0.50;;;;;;;-5.43;66.08;99795.00;4970026;28;20051;-72
2023/03/09 04:17:05;;;;;;;4.55;0.80;;;;;;;-5.43;66.14;99795.00;4972274;28;20074;-72
2023/03/09 04:19:32;;;;;;;1.55;0.57;;;;;;;-5.47;66.23;99794.03;4971121;28;20442;-72
2023/03/09 04:21:59;;;;;;;3.22;0.70;;;;;;;-5.50;65.92;99791.38;4971245;28;20407;-72
2023/03/09 04:24:26;;;;;;;4.80;0.70;;;;;;;-5.51;66.51;99793.91;4970775;28;20042;-72
2023/03/09 04:26:53;;;;;;;3.20;0.55;;;;;;;-5.53;66.30;99798.06;4970798;28;20053;-72
2023/03/09 04:29:21;;;;;;;2.95;0.68;;;;;;;-5.55;65.95;99794.59;4970479;28;20057;-72
2023/03/09 04:31:48;;;;;;;2.60;0.55;;;;;;;-5.61;66.59;99794.44;4971738;28;20073;-72
2023/03/09 04:34:15;;;;;;;2.22;0.90;;;;;;;-5.70;66.21;99785.69;4970721;28;20071;-73
2023/03/09 04:36:42;;;;;;;2.42;0.52;;;;;;;-5.63;66.07;99801.13;4970926;28;20049;-72
2023/03/09 04:39:10;;;;;;;3.58;0.63;;;;;;;-5.66;65.99;99804.47;4971806;28;20057;-72
2023/03/09 04:41:37;;;;;;;2.83;1.00;;;;;;;-5.69;66.46;99796.75;4970394;28;20211;-72
2023/03/09 04:44:04;;;;;;;1.90;0.50;;;;;;;-5.71;65.64;99800.94;4971648;28;20047;-72
2023/03/09 04:46:32;;;;;;;2.85;0.70;;;;;;;-5.74;65.62;99799.16;4971367;28;20047;-72
2023/03/09 04:48:59;;;;;;;1.95;0.52;;;;;;;-5.77;65.59;99801.59;4970959;28;20443;-72
2023/03/09 04:51:26;;;;;;;3.92;0.85;;;;;;;-5.80;65.89;99804.06;4971140;28;20704;-72
2023/03/09 04:53:53;;;;;;;2.20;0.50;;;;;;;-5.82;65.67;99802.28;4971055;28;20047;-72
2023/03/09 04:56:20;;;;;;;2.30;0.60;;;;;;;-5.85;66.28;99803.03;4969456;28;20307;-72
2023/03/09 04:58:47;;;;;;;2.97;0.80;;;;;;;-5.89;66.28;99801.22;4970337;28;20961;-72
2023/03/09 05:01:14;;;;;;;3.67;0.95;;;;;;;-5.91;66.25;99800.31;4970974;28;20494;-72
2023/03/09 05:03:43;;;;;;;1.38;0.50;;;;;;;-5.95;66.24;99796.84;4970442;28;20481;-72
2023/03/09 05:06:09;;;;;;;1.90;0.52;;;;;;;-5.99;66.26;99799.22;4970067;28;20059;-72
2023/03/09 05:08:36;;;;;;;2.30;0.80;;;;;;;-6.00;65.62;99800.03;4970914;28;20050;-72
2023/03/09 05:11:03;;;;;;;1.20;0.60;;;;;;;-6.04;66.23;99793.13;4970463;28;20046;-72
2023/03/09 05:13:30;;;;;;;3.53;0.57;;;;;;;-6.06;65.84;99789.66;4969775;28;20062;-72
2023/03/09 05:15:57;;;;;;;1.98;0.60;;;;;;;-6.09;65.37;99794.63;4969835;28;20060;-72
2023/03/09 05:18:24;;;;;;;2.17;0.50;;;;;;;-6.13;65.47;99799.63;4969142;28;20043;-72
2023/03/09 05:20:52;;;;;;;5.03;0.70;;;;;;;-6.16;65.41;99793.59;4970156;28;20129;-72
2023/03/09 05:23:19;;;;;;;2.58;1.33;;;;;;;-6.18;65.47;99796.06;4970584;28;20447;-72
2023/03/09 05:25:56;;;;;;;1.55;0.70;;;;;;;-6.23;66.09;99789.09;4972081;28;20061;-72
2023/03/09 05:28:24;;;;;;;1.50;0.55;;;;;;;-6.24;65.48;99785.69;4970047;28;20510;-72
2023/03/09 05:30:51;;;;;;;2.40;0.75;;;;;;;-6.27;65.72;99795.78;4970291;28;20059;-72
2023/03/09 05:33:18;;;;;;;5.80;0.57;;;;;;;-6.29;66.00;99797.38;4970600;28;20074;-72
2023/03/09 05:35:45;;;;;;;6.25;1.30;;;;;;;-6.32;65.79;99797.28;4967437;28;20046;-72
2023/03/09 05:38:14;;;;;;;1.20;0.60;;;;;;;-6.34;65.85;99796.41;4970963;28;20042;-72
2023/03/09 05:40:40;;;;;;;4.72;0.95;;;;;;;-6.38;65.84;99803.03;4970277;28;20046;-72
2023/03/09 05:43:08;;;;;;;2.28;0.82;;;;;;;-6.40;65.91;99801.28;4969113;28;20061;-71
2023/03/09 05:45:34;;;;;;;3.13;0.75;;;;;;;-6.43;65.20;99809.66;4970362;28;20049;-72
2023/03/09 05:48:01;;;;;;;1.33;0.70;;;;;;;-6.45;65.17;99811.28;4970173;28;20047;-73
2023/03/09 05:50:28;;;;;;;4.40;0.77;;;;;;;-6.45;65.89;99815.50;4969203;28;20415;-73
2023/03/09 05:52:55;;;;;;;2.70;0.88;;;;;;;-6.49;65.72;99809.41;4969487;28;20474;-72
2023/03/09 05:55:23;;;;;;;3.63;0.70;;;;;;;-6.52;66.02;99804.25;4969744;28;20925;-71
2023/03/09 05:57:50;;;;;;;2.50;0.85;;;;;;;-6.53;65.67;99806.75;4969479;28;20047;-71
2023/03/09 06:00:18;;;;;;;1.60;0.52;;;;;;;-6.54;65.69;99805.03;4969755;28;20055;-71
2023/03/09 06:02:45;;;;;;;6.18;1.00;;;;;;;-6.56;65.11;99817.66;4967419;28;20125;-71
2023/03/09 06:05:11;;;;;;;2.00;0.80;;;;;;;-6.59;65.68;99820.09;4968814;28;20057;-71
2023/03/09 06:07:40;;;;;;;2.03;0.50;;;;;;;-6.61;65.60;99820.03;4968801;28;20043;-71
2023/03/09 06:10:08;;;;;;;3.83;0.77;;;;;;;-6.62;65.94;99820.84;4969547;28;20513;-71
2023/03/09 06:12:36;;;;;;;2.22;0.63;;;;;;;-6.63;65.30;99815.69;4968626;28;20059;-71
2023/03/09 06:15:04;;;;;;;4.80;0.80;;;;;;;-6.64;65.35;99819.94;4970000;28;20053;-72
2023/03/09 06:17:30;;;;;;;2.55;0.73;;;;;;;-6.65;65.75;99822.44;4968679;28;20536;-71
2023/03/09 06:19:57;;;;;;;3.88;0.60;;;;;;;-6.68;65.59;99823.19;4969142;28;20804;-72
2023/03/09 06:22:26;;;;;;;1.85;0.65;;;;;;;-6.67;65.42;99824.03;4969303;28;20422;-72
2023/03/09 06:24:52;;;;;;;1.42;0.60;;;;;;;-6.67;65.52;99829.13;4966979;28;20046;-72
2023/03/09 06:27:19;;;;;;;2.47;0.63;;;;;;;-6.68;66.03;99833.34;4969777;28;20086;-71
2023/03/09 06:29:48;;;;;;;2.03;1.00;;;;;;;-6.70;66.06;99829.88;4966365;28;20130;-71
2023/03/09 06:32:14;;;;;;;5.00;1.05;;;;;;;-6.68;65.97;99838.41;4966341;28;20047;-72
2023/03/09 06:34:41;;;;;;;4.75;0.68;;;;;;;-6.70;66.09;99840.03;4969695;28;20050;-71
2023/03/09 06:37:08;;;;;;;2.95;0.80;;;;;;;-6.67;65.80;99844.34;4968589;28;20050;-71
2023/03/09 06:39:35;;;;;;;2.40;0.88;;;;;;;-6.68;66.26;99853.66;4967344;28;20506;-71
2023/03/09 06:42:02;;;;;;;1.95;1.02;;;;;;;-6.68;65.32;99857.88;4968751;28;20049;-71
2023/03/09 06:44:29;;;;;;;2.22;0.98;;;;;;;-6.70;65.87;99855.28;4968838;28;20058;-71
2023/03/09 06:46:57;;;;;;;3.15;0.93;;;;;;;-6.67;65.84;99860.47;4968483;28;20061;-71
2023/03/09 06:49:24;;;;;;;8.80;1.02;;;;;;;-6.67;65.67;99868.06;4967589;28;20089;-72
2023/03/09 06:51:51;;;;;;;2.50;1.50;;;;;;;-6.63;65.56;99871.59;4966744;28;20058;-72
2023/03/09 06:54:18;;;;;;;2.45;0.88;;;;;;;-6.62;66.09;99878.41;4970143;28;20054;-72
2023/03/09 06:56:45;;;;;;;9.80;2.30;;;;;;;-6.63;65.44;99876.66;4971663;28;20444;-71
2023/03/09 06:59:12;;;;;;;5.22;1.85;;;;;;;-6.59;65.91;99873.44;4972565;28;20074;-71
2023/03/09 07:01:39;;;;;;;3.67;1.60;;;;;;;-6.58;66.31;99875.16;4971961;28;20043;-71
2023/03/09 07:04:07;;;;;;;7.07;1.60;;;;;;;-6.54;66.49;99878.69;4973335;28;20059;-72
2023/03/09 07:06:34;;;;;;;9.90;2.08;;;;;;;-6.53;65.97;99872.78;4972529;28;20050;-72
2023/03/09 07:09:01;;;;;;;10.25;2.15;;;;;;;-6.56;66.32;99864.25;4973230;28;20051;-71
2023/03/09 07:11:28;;;;;;;4.82;1.88;;;;;;;-6.45;66.21;99872.25;4972694;28;20053;-71
2023/03/09 07:13:55;;;;;;;5.38;2.00;;;;;;;-6.41;66.27;99878.28;4972266;28;20550;-72
2023/03/09 07:16:22;;;;;;;4.07;2.05;;;;;;;-6.39;66.07;99867.38;4972331;28;20058;-71
2023/03/09 07:18:49;;;;;;;3.20;1.88;;;;;;;-6.32;66.82;99870.13;4972984;28;20051;-71
2023/03/09 07:21:18;;;;;;;4.68;1.60;;;;;;;-6.28;66.50;99877.91;4971722;28;20046;-71
2023/03/09 07:23:45;;;;;;;9.82;2.95;;;;;;;-6.22;66.45;99870.50;4972026;28;20047;-72
2023/03/09 07:26:12;;;;;;;6.68;1.95;;;;;;;-6.17;66.64;99879.16;4972644;28;20051;-71
2023/03/09 07:28:39;;;;;;;8.15;1.77;;;;;;;-6.12;66.43;99872.56;4971279;28;20062;-72
2023/03/09 07:31:09;;;;;;;9.38;2.88;;;;;;;-6.05;66.54;99888.00;4970212;28;20526;-72
2023/03/09 07:33:36;;;;;;;17.58;4.57;;;;;;;-5.98;67.55;99895.00;4972722;28;20050;-71
2023/03/09 07:36:04;;;;;;;14.10;4.78;;;;;;;-5.93;67.23;99901.94;4972437;28;20216;-71
2023/03/09 07:38:33;;;;;;;11.52;4.35;;;;;;;-5.88;67.64;99897.88;4970483;28;20043;-72
2023/03/09 07:41:01;;;;;;;10.35;4.00;;;;;;;-5.83;67.61;99895.50;4972329;28;20046;-70
2023/03/09 07:43:28;;;;;;;8.52;2.28;;;;;;;-5.72;67.46;99903.47;4972401;28;20487;-72
2023/03/09 07:45:55;;;;;;;5.65;1.98;;;;;;;-5.63;67.80;99902.91;4972332;28;20487;-72
2023/03/09 07:48:22;;;;;;;11.95;3.67;;;;;;;-5.57;67.68;99895.50;4973372;28;20058;-70
2023/03/09 07:50:58;;;;;;;9.90;3.65;;;;;;;-5.48;68.09;99900.88;4971882;28;20051;-71
2023/03/09 07:53:25;;;;;;;8.07;2.85;;;;;;;-5.43;67.35;99894.25;4972146;28;20059;-72
2023/03/09 07:55:56;;;;;;;9.63;3.05;;;;;;;-5.39;68.09;99882.47;4971027;28;20058;-72
2023/03/09 07:58:23;;;;;;;9.70;4.20;;;;;;;-5.25;67.88;99899.91;4971573;28;20050;-72
2023/03/09 08:00:50;;;;;;;8.18;2.90;;;;;;;-5.14;67.54;99899.38;4971700;28;20079;-72
2023/03/09 08:03:17;;;;;;;8.82;3.25;;;;;;;-5.04;68.46;99898.81;4972087;28;20050;-73
2023/03/09 08:05:44;;;;;;;9.02;3.65;;;;;;;-4.94;67.87;99900.84;4971600;28;20081;-72
2023/03/09 08:08:12;;;;;;;8.60;3.58;;;;;;;-4.83;67.86;99896.06;4969019;28;20057;-70
2023/03/09 08:10:39;;;;;;;7.32;2.30;;;;;;;-4.70;68.38;99903.22;4970577;28;20097;-68
2023/03/09 08:13:10;;;;;;;6.65;3.10;;;;;;;-4.58;68.64;99898.50;4969897;28;20141;-69
2023/03/09 08:15:37;;;;;;;7.35;3.28;;;;;;;-4.45;68.79;99898.81;4969993;28;20054;-69
2023/03/09 08:18:04;;;;;;;10.52;3.17;;;;;;;-4.32;68.82;99901.75;4971717;28;20509;-69
2023/03/09 08:20:31;;;;;;;5.68;1.55;;;;;;;-4.20;68.33;99892.72;4971197;28;20079;-73
2023/03/09 08:22:57;;;;;;;6.53;1.60;;;;;;;-4.04;68.87;99894.84;4970719;28;20712;-73
2023/03/09 08:25:24;;;;;;;5.05;2.13;;;;;;;-3.91;69.15;99899.44;4971346;28;20412;-74
2023/03/09 08:27:51;;;;;;;2.35;0.65;;;;;;;-3.76;69.06;99895.53;4973404;28;20055;-75
2023/03/09 08:30:21;;;;;;;3.58;0.77;;;;;;;-3.62;68.94;99889.94;4972267;28;20499;-75
2023/03/09 08:32:48;;;;;;;3.55;1.10;;;;;;;-3.48;69.43;99887.72;4970459;28;20479;-73
2023/03/09 08:35:15;;;;;;;3.83;0.52;;;;;;;-3.32;68.90;99886.41;4972221;28;20051;-74
2023/03/09 08:37:42;;;;;;;2.65;0.60;;;;;;;-3.17;69.26;99896.09;4972675;28;20050;-72
2023/03/09 08:40:10;;;;;;;1.77;0.50;;;;;;;-3.05;69.04;99904.03;4970813;28;20050;-73
2023/03/09 08:42:37;;;;;;;2.10;0.85;;;;;;;-2.91;69.39;99901.78;4971702;28;20406;-76
2023/03/09 08:45:06;;;;;;;5.72;1.17;;;;;;;-2.79;69.54;99904.63;4970848;28;20475;-73
2023/03/09 08:47:34;;;;;;;1.80;0.77;;;;;;;-2.65;69.60;99915.09;4973119;28;20054;-74
2023/03/09 08:50:01;;;;;;;6.53;0.77;;;;;;;-2.56;69.45;99912.78;4971114;28;20546;-75
2023/03/09 08:52:28;;;;;;;2.72;0.65;;;;;;;-2.45;69.41;99912.97;4971579;28;20050;-75
2023/03/09 08:54:56;;;;;;;3.72;0.85;;;;;;;-2.33;69.45;99912.38;4970485;28;20126;-73
2023/03/09 08:57:22;;;;;;;2.70;0.90;;;;;;;-2.24;69.38;99909.97;4971019;28;20063;-74
2023/03/09 08:59:49;;;;;;;1.75;0.50;;;;;;;-2.15;69.38;99904.19;4971923;28;20057;-75
2023/03/09 09:02:16;;;;;;;1.00;0.50;;;;;;;-1.98;69.57;99912.16;4970472;28;20525;-74
2023/03/09 09:04:45;;;;;;;2.00;0.80;;;;;;;-1.88;68.96;99926.84;4971151;28;20043;-74
2023/03/09 09:07:12;;;;;;;5.05;0.77;;;;;;;-1.77;69.11;99927.88;4972015;28;20518;-73
2023/03/09 09:09:39;;;;;;;2.35;0.57;;;;;;;-1.73;69.06;99909.22;4970565;28;20047;-75
2023/03/09 09:12:06;;;;;;;1.27;0.30;;;;;;;-1.63;68.71;99911.06;4971485;28;20053;-74
2023/03/09 09:14:34;;;;;;;1.98;0.40;;;;;;;-1.48;69.33;99919.84;4970533;28;20050;-72
2023/03/09 09:17:01;;;;;;;2.50;0.73;;;;;;;-1.38;69.17;99916.59;4970882;28;20043;-72
2023/03/09 09:19:28;;;;;;;1.88;0.80;;;;;;;-1.29;69.17;99924.44;4970821;28;20059;-74
2023/03/09 09:21:58;;;;;;;1.23;0.40;;;;;;;-1.20;69.19;99922.00;4969873;28;20479;-75
2023/03/09 09:24:25;;;;;;;1.20;0.40;;;;;;;-1.11;68.76;99918.75;4970573;28;20050;-76
2023/03/09 09:26:54;;;;;;;1.25;0.50;;;;;;;-1.03;68.84;99926.53;4969900;28;20054;-75
2023/03/09 09:29:21;;;;;;;4.57;0.50;;;;;;;-0.96;68.72;99925.78;4968774;28;20053;-73
2023/03/09 09:31:49;;;;;;;1.55;0.43;;;;;;;-0.87;68.83;99925.06;4969974;28;20047;-74
2023/03/09 09:34:17;;;;;;;2.60;0.55;;;;;;;-0.79;68.36;99924.31;4970651;28;20049;-74
2023/03/09 09:36:45;;;;;;;4.43;0.32;;;;;;;-0.72;68.41;99920.97;4970162;28;20051;-74
2023/03/09 09:39:13;;;;;;;1.38;0.43;;;;;;;-0.62;68.34;99934.81;4970182;28;20062;-73
2023/03/09 09:41:43;;;;;;;2.00;0.40;;;;;;;-0.60;68.32;99925.41;4969353;28;20514;-76
2023/03/09 09:44:14;;;;;;;1.80;0.30;;;;;;;-0.46;68.68;99933.28;4970496;28;20055;-73
2023/03/09 09:46:41;;;;;;;1.38;0.20;;;;;;;-0.38;68.71;99925.69;4970307;28;20070;-74
2023/03/09 09:49:15;;;;;;;2.92;0.73;;;;;;;-0.31;68.40;99933.50;4971292;28;20118;-74
2023/03/09 09:51:50;;;;;;;1.00;0.35;;;;;;;-0.22;68.51;99934.44;4968537;28;20054;-74
2023/03/09 09:54:25;;;;;;;4.18;0.40;;;;;;;-0.14;68.64;99937.94;4970752;28;20487;-73
2023/03/09 09:56:56;;;;;;;1.00;0.43;;;;;;;-0.07;67.93;99939.75;4970007;28;20050;-72
2023/03/09 09:59:31;;;;;;;2.75;0.40;;;;;;;0.00;68.10;99931.28;4970683;28;20051;-72
2023/03/09 10:02:02;;;;;;;0.97;0.20;;;;;;;0.07;67.61;99924.50;4970774;28;20042;-77
2023/03/09 10:04:33;;;;;;;0.55;0.17;;;;;;;0.12;67.85;99930.53;4970625;28;20787;-75
2023/03/09 10:07:11;;;;;;;0.40;0.20;;;;;;;0.18;68.22;99935.75;4970405;28;20039;-74
2023/03/09 10:09:42;;;;;;;1.27;0.20;;;;;;;0.23;68.06;99926.38;4972176;28;20131;-77
2023/03/09 10:12:14;;;;;;;2.35;0.17;;;;;;;0.29;67.82;99939.28;4973250;28;20057;-82
2023/03/09 10:14:45;;;;;;;0.40;0.20;;;;;;;0.35;66.95;99935.91;4972338;28;20043;-77
2023/03/09 10:17:17;;;;;;;1.40;0.30;;;;;;;0.40;66.87;99939.38;4972126;28;20115;-76
2023/03/09 10:19:46;;;;;;;0.85;0.85;;;;;;;0.46;67.04;99934.28;4972223;28;20119;-77
2023/03/09 10:22:20;;;;;;;0.77;0.13;;;;;;;0.43;67.17;99935.13;4971921;28;20053;-78
2023/03/09 10:24:50;;;;;;;0.63;0.17;;;;;;;0.48;66.51;99931.72;4967634;28;20050;-77
2023/03/09 10:27:22;;;;;;;0.85;0.15;;;;;;;0.57;66.30;99939.50;4973571;28;20451;-79
2023/03/09 10:29:55;;;;;;;1.13;0.20;;;;;;;0.59;65.78;99925.81;4976985;28;20047;-78
2023/03/09 10:32:29;;;;;;;1.15;0.20;;;;;;;0.63;65.74;99925.00;4976298;28;20117;-75
2023/03/09 10:34:59;;;;;;;0.82;0.40;;;;;;;0.67;65.33;99937.03;4975930;28;20503;-76
2023/03/09 10:37:33;;;;;;;0.32;0.10;;;;;;;0.68;65.12;99927.59;4975276;28;20082;-77
2023/03/09 10:40:05;;;;;;;0.28;0.10;;;;;;;0.75;65.12;99925.97;4975919;28;20134;-77
2023/03/09 10:42:36;;;;;;;0.85;0.08;;;;;;;0.78;64.80;99928.56;4974880;28;20060;-77
2023/03/09 10:45:07;;;;;;;2.40;0.10;;;;;;;0.82;64.85;99927.72;4973586;28;20051;-76
2023/03/09 10:47:56;;;;;;;0.20;0.10;;;;;;;0.84;64.87;99916.59;4971385;28;20064;-78
2023/03/09 10:50:25;;;;;;;0.10;0.00;;;;;;;0.87;64.85;99928.63;4970876;28;20055;-76
2023/03/09 10:52:52;;;;;;;3.50;0.10;;;;;;;0.90;65.31;99920.91;4970605;28;20051;-75
2023/03/09 10:55:33;;;;;;;0.95;0.10;;;;;;;0.93;64.21;99910.66;4973714;28;20046;-73
2023/03/09 10:58:02;;;;;;;0.15;0.03;;;;;;;0.96;65.17;99909.81;4973504;28;20050;-72
2023/03/09 11:00:30;;;;;;;0.20;0.00;;;;;;;1.00;64.61;99915.00;4973394;28;20047;-75
2023/03/09 11:02:59;;;;;;;0.43;0.20;;;;;;;1.02;64.48;99915.00;4972765;28;20062;-75
2023/03/09 11:05:28;;;;;;;0.20;0.05;;;;;;;1.05;64.71;99918.47;4973899;28;20074;-74
2023/03/09 11:07:57;;;;;;;2.97;0.10;;;;;;;1.09;64.09;99909.91;4971764;28;20419;-74
2023/03/09 11:10:28;;;;;;;0.10;0.03;;;;;;;1.12;64.43;99907.34;4973541;28;20109;-74
2023/03/09 11:12:56;;;;;;;0.30;0.00;;;;;;;1.16;64.00;99909.94;4972770;28;20591;-74
2023/03/09 11:15:29;;;;;;;1.48;0.10;;;;;;;1.21;63.63;99910.84;4972168;28;20065;-74
2023/03/09 11:17:57;;;;;;;1.30;0.10;;;;;;;1.24;63.60;99913.41;4972881;28;20047;-74
2023/03/09 11:20:34;;;;;;;0.00;0.00;;;;;;;1.29;63.22;99915.16;4972699;28;20094;-74
2023/03/09 11:23:20;;;;;;;1.20;0.00;;;;;;;1.33;63.16;99906.59;4971501;28;20053;-74
2023/03/09 11:26:00;;;;;;;0.10;0.05;;;;;;;1.37;62.95;99916.91;4971475;28;20049;-75
2023/03/09 11:28:35;;;;;;;1.60;0.00;;;;;;;1.36;63.44;99905.75;4972549;28;20130;-74
2023/03/09 11:31:02;;;;;;;0.07;0.00;;;;;;;1.33;62.67;99890.31;4972076;28;20407;-74
2023/03/09 11:33:31;;;;;;;0.17;0.10;;;;;;;1.37;61.35;99891.16;4973431;28;20288;-74
2023/03/09 11:35:59;;;;;;;0.10;0.00;;;;;;;1.40;61.96;99899.78;4972646;28;20525;-73
2023/03/09 11:38:30;;;;;;;0.10;0.00;;;;;;;1.41;62.08;99906.66;4972241;28;20138;-73
2023/03/09 11:41:08;;;;;;;1.20;0.10;;;;;;;1.42;61.78;99900.63;4972450;28;20047;-74